createdAt,value
2018-06-12T00:00:10.760Z,22.74
2018-06-12T00:02:37.042Z,22.72
2018-06-12T00:05:03.336Z,22.76
2018-06-12T00:07:29.633Z,22.81
2018-06-12T00:09:55.928Z,22.77
2018-06-12T00:12:22.229Z,22.68
2018-06-12T00:14:48.519Z,22.67
2018-06-12T00:17:14.810Z,22.69
2018-06-12T00:19:41.102Z,22.66
2018-06-12T00:22:07.400Z,22.65
2018-06-12T00:24:33.737Z,22.57
2018-06-12T00:27:00.023Z,22.49
2018-06-12T00:29:26.319Z,22.47
2018-06-12T00:31:52.611Z,22.52
2018-06-12T00:34:18.952Z,22.49
2018-06-12T00:36:45.275Z,22.48
2018-06-12T00:39:11.598Z,22.50
2018-06-12T00:41:37.938Z,22.47
2018-06-12T00:44:04.259Z,22.40
2018-06-12T00:46:30.542Z,22.45
2018-06-12T00:48:56.836Z,22.44
2018-06-12T00:51:23.118Z,22.50
2018-06-12T00:53:49.418Z,22.50
2018-06-12T00:56:15.748Z,22.44
2018-06-12T00:58:42.041Z,22.34
2018-06-12T01:01:08.374Z,22.23
2018-06-12T01:03:34.669Z,22.24
2018-06-12T01:06:01.016Z,22.28
2018-06-12T01:08:27.304Z,22.34
2018-06-12T01:10:53.591Z,22.23
2018-06-12T01:13:19.882Z,22.21
2018-06-12T01:15:46.176Z,22.29
2018-06-12T01:18:12.464Z,22.34
2018-06-12T01:20:38.798Z,22.39
2018-06-12T01:23:05.114Z,22.40
2018-06-12T01:25:31.424Z,22.44
2018-06-12T01:27:57.718Z,22.40
2018-06-12T01:30:24.048Z,22.41
2018-06-12T01:32:50.377Z,22.44
2018-06-12T01:35:16.664Z,22.47
2018-06-12T01:37:42.997Z,22.50
2018-06-12T01:40:09.330Z,22.49
2018-06-12T01:42:35.622Z,22.50
2018-06-12T01:45:01.916Z,22.42
2018-06-12T01:47:28.203Z,22.41
2018-06-12T01:49:54.545Z,22.44
2018-06-12T01:52:20.836Z,22.48
2018-06-12T01:54:47.134Z,22.51
2018-06-12T01:57:13.424Z,22.50
2018-06-12T01:59:39.722Z,22.48
2018-06-12T02:02:06.024Z,22.37
2018-06-12T02:04:32.310Z,22.29
2018-06-12T02:06:58.608Z,22.27
2018-06-12T02:09:24.893Z,22.22
2018-06-12T02:11:51.184Z,22.06
2018-06-12T02:14:17.475Z,21.96
2018-06-12T02:16:43.767Z,22.06
2018-06-12T02:19:10.070Z,22.13
2018-06-12T02:21:36.368Z,22.09
2018-06-12T02:24:02.664Z,22.08
2018-06-12T02:26:28.958Z,22.04
2018-06-12T02:28:55.262Z,22.04
2018-06-12T02:31:21.547Z,22.04
2018-06-12T02:33:47.841Z,22.07
2018-06-12T02:36:14.127Z,22.07
2018-06-12T02:38:40.414Z,22.09
2018-06-12T02:41:06.745Z,22.07
2018-06-12T02:43:33.111Z,22.09
2018-06-12T02:45:59.396Z,22.00
2018-06-12T02:48:25.684Z,21.93
2018-06-12T02:50:52.024Z,21.93
2018-06-12T02:53:18.311Z,21.88
2018-06-12T02:55:44.605Z,21.86
2018-06-12T02:58:10.949Z,21.84
2018-06-12T03:00:37.248Z,21.84
2018-06-12T03:03:03.536Z,21.83
2018-06-12T03:05:29.840Z,21.81
2018-06-12T03:07:56.129Z,21.82
2018-06-12T03:10:22.427Z,21.76
2018-06-12T03:12:48.719Z,21.74
2018-06-12T03:15:15.010Z,21.72
2018-06-12T03:17:41.296Z,21.75
2018-06-12T03:20:07.623Z,21.75
2018-06-12T03:22:33.944Z,21.75
2018-06-12T03:25:00.243Z,21.76
2018-06-12T03:27:26.585Z,21.75
2018-06-12T03:29:52.870Z,21.75
2018-06-12T03:32:19.160Z,21.73
2018-06-12T03:34:45.451Z,21.70
2018-06-12T03:37:11.742Z,21.68
2018-06-12T03:39:38.039Z,21.67
2018-06-12T03:42:04.324Z,21.70
2018-06-12T03:44:30.611Z,21.70
2018-06-12T03:46:56.907Z,21.69
2018-06-12T03:49:23.190Z,21.71
2018-06-12T03:51:49.486Z,21.70
2018-06-12T03:54:15.772Z,21.65
2018-06-12T03:56:42.065Z,21.62
2018-06-12T03:59:08.416Z,21.62
2018-06-12T04:01:34.709Z,21.65
2018-06-12T04:04:00.994Z,21.71
2018-06-12T04:06:27.283Z,21.81
2018-06-12T04:08:53.620Z,21.94
2018-06-12T04:11:19.907Z,22.00
2018-06-12T04:13:46.194Z,22.02
2018-06-12T04:16:12.487Z,22.04
2018-06-12T04:18:38.776Z,22.07
2018-06-12T04:21:05.076Z,22.17
2018-06-12T04:23:31.370Z,22.19
2018-06-12T04:25:57.673Z,22.22
2018-06-12T04:28:23.964Z,22.23
2018-06-12T04:30:50.260Z,22.28
2018-06-12T04:33:16.562Z,22.41
2018-06-12T04:35:42.850Z,22.45
2018-06-12T04:38:09.148Z,22.42
2018-06-12T04:40:35.435Z,22.32
2018-06-12T04:43:01.733Z,21.59
2018-06-12T04:45:28.025Z,21.16
2018-06-12T04:47:54.316Z,20.97
2018-06-12T04:50:20.616Z,21.04
2018-06-12T04:52:46.904Z,20.77
2018-06-12T04:55:13.198Z,20.79
2018-06-12T04:57:39.494Z,20.93
2018-06-12T05:00:05.792Z,21.01
2018-06-12T05:02:32.130Z,21.21
2018-06-12T05:04:58.481Z,21.39
2018-06-12T05:07:24.819Z,21.47
2018-06-12T05:09:51.108Z,21.53
2018-06-12T05:12:17.470Z,21.62
2018-06-12T05:14:43.800Z,21.67
2018-06-12T05:17:10.127Z,21.70
2018-06-12T05:19:36.459Z,21.62
2018-06-12T05:22:02.749Z,21.60
2018-06-12T05:24:29.075Z,21.60
2018-06-12T05:26:55.417Z,21.67
2018-06-12T05:29:21.721Z,21.76
2018-06-12T05:31:48.008Z,21.82
2018-06-12T05:34:14.294Z,21.92
2018-06-12T05:36:40.628Z,22.00
2018-06-12T05:39:06.923Z,22.08
2018-06-12T05:41:33.211Z,22.15
2018-06-12T05:43:59.509Z,22.22
2018-06-12T05:46:25.831Z,22.32
2018-06-12T05:48:52.116Z,22.39
2018-06-12T05:51:18.454Z,22.49
2018-06-12T05:53:44.754Z,22.55
2018-06-12T05:56:11.056Z,22.66
2018-06-12T05:58:37.385Z,22.78
2018-06-12T06:01:03.686Z,22.80
2018-06-12T06:03:29.974Z,22.90
2018-06-12T06:05:56.300Z,22.99
2018-06-12T06:08:22.590Z,23.07
2018-06-12T06:10:48.915Z,23.14
2018-06-12T06:13:15.208Z,23.17
2018-06-12T06:15:41.498Z,23.26
2018-06-12T06:18:07.799Z,23.38
2018-06-12T06:20:34.137Z,23.46
2018-06-12T06:23:00.424Z,23.47
2018-06-12T06:25:26.712Z,23.49
2018-06-12T06:27:53.075Z,23.54
2018-06-12T06:30:19.364Z,23.58
2018-06-12T06:32:45.684Z,23.71
2018-06-12T06:35:11.958Z,23.85
2018-06-12T06:37:38.252Z,23.88
2018-06-12T06:40:04.540Z,23.87
2018-06-12T06:42:30.831Z,23.96
2018-06-12T06:44:57.165Z,24.14
2018-06-12T06:47:23.467Z,24.27
2018-06-12T06:49:49.755Z,24.29
2018-06-12T06:52:16.048Z,24.25
2018-06-12T06:54:42.399Z,24.21
2018-06-12T06:57:08.729Z,24.29
2018-06-12T06:59:35.009Z,24.38
2018-06-12T07:02:01.291Z,24.43
2018-06-12T07:04:27.578Z,24.50
2018-06-12T07:06:53.868Z,24.63
2018-06-12T07:09:20.160Z,24.72
2018-06-12T07:11:46.449Z,24.75
2018-06-12T07:14:12.741Z,24.77
2018-06-12T07:16:39.033Z,24.87
2018-06-12T07:19:05.325Z,24.99
2018-06-12T07:21:31.620Z,25.02
2018-06-12T07:23:57.936Z,25.04
2018-06-12T07:26:24.230Z,25.06
2018-06-12T07:28:50.527Z,25.14
2018-06-12T07:31:16.863Z,25.24
2018-06-12T07:33:43.150Z,25.30
2018-06-12T07:36:09.447Z,25.40
2018-06-12T07:38:35.749Z,25.47
2018-06-12T07:41:02.045Z,25.60
2018-06-12T07:43:28.423Z,25.81
2018-06-12T07:45:54.708Z,26.00
2018-06-12T07:48:21.035Z,26.12
2018-06-12T07:50:47.414Z,26.24
2018-06-12T07:53:13.707Z,26.23
2018-06-12T07:55:40.058Z,26.22
2018-06-12T07:58:06.352Z,26.33
2018-06-12T08:00:32.649Z,26.48
2018-06-12T08:02:59.039Z,26.62
2018-06-12T08:05:25.338Z,26.69
2018-06-12T08:07:51.675Z,26.68
2018-06-12T08:10:18.012Z,26.71
2018-06-12T08:12:44.338Z,26.83
2018-06-12T08:15:10.605Z,26.96
2018-06-12T08:17:36.890Z,26.98
2018-06-12T08:20:03.186Z,26.97
2018-06-12T08:22:29.523Z,27.00
2018-06-12T08:24:55.807Z,27.12
2018-06-12T08:27:22.136Z,27.20
2018-06-12T08:29:48.461Z,27.33
2018-06-12T08:32:14.730Z,27.49
2018-06-12T08:34:41.033Z,27.63
2018-06-12T08:37:07.322Z,27.68
2018-06-12T08:39:33.607Z,27.63
2018-06-12T08:41:59.959Z,27.61
2018-06-12T08:44:26.300Z,27.64
2018-06-12T08:46:52.586Z,27.69
2018-06-12T08:49:18.915Z,27.79
2018-06-12T08:51:45.203Z,27.91
2018-06-12T08:54:11.492Z,28.05
2018-06-12T08:56:37.822Z,28.15
2018-06-12T08:59:04.106Z,28.23
2018-06-12T09:01:30.434Z,28.29
2018-06-12T09:03:56.724Z,28.36
2018-06-12T09:06:23.072Z,28.46
2018-06-12T09:08:49.358Z,28.56
2018-06-12T09:11:15.644Z,28.62
2018-06-12T09:13:41.938Z,28.70
2018-06-12T09:16:08.228Z,28.74
2018-06-12T09:18:34.519Z,28.75
2018-06-12T09:21:00.809Z,28.86
2018-06-12T09:23:27.099Z,28.89
2018-06-12T09:25:53.388Z,29.01
2018-06-12T09:28:19.676Z,29.09
2018-06-12T09:30:45.969Z,29.18
2018-06-12T09:33:12.265Z,29.21
2018-06-12T09:35:38.550Z,29.29
2018-06-12T09:38:04.846Z,29.38
2018-06-12T09:40:31.135Z,29.44
2018-06-12T09:42:57.430Z,29.45
2018-06-12T09:45:23.722Z,29.48
2018-06-12T09:47:50.014Z,29.54
2018-06-12T09:50:16.299Z,29.52
2018-06-12T09:52:42.599Z,29.53
2018-06-12T09:55:08.879Z,29.55
2018-06-12T09:57:35.190Z,29.62
2018-06-12T10:00:01.490Z,29.66
2018-06-12T10:02:27.820Z,29.72
2018-06-12T10:04:54.103Z,29.67
2018-06-12T10:07:20.434Z,29.69
2018-06-12T10:09:46.770Z,29.80
2018-06-12T10:12:13.051Z,29.92
2018-06-12T10:14:39.347Z,30.04
2018-06-12T10:17:05.677Z,30.11
2018-06-12T10:19:31.968Z,30.12
2018-06-12T10:21:58.304Z,30.14
2018-06-12T10:24:24.627Z,30.12
2018-06-12T10:26:50.916Z,30.10
2018-06-12T10:29:17.211Z,30.09
2018-06-12T10:31:43.504Z,30.18
2018-06-12T10:34:09.795Z,30.25
2018-06-12T10:36:36.143Z,30.28
2018-06-12T10:39:02.431Z,30.32
2018-06-12T10:41:28.717Z,30.37
2018-06-12T10:43:55.007Z,30.46
2018-06-12T10:46:21.305Z,30.55
2018-06-12T10:48:47.592Z,30.61
2018-06-12T10:51:13.879Z,30.61
2018-06-12T10:53:40.165Z,30.58
2018-06-12T10:56:06.458Z,30.59
2018-06-12T10:58:32.748Z,30.66
2018-06-12T11:00:59.044Z,30.64
2018-06-12T11:03:25.342Z,30.63
2018-06-12T11:05:51.631Z,30.67
2018-06-12T11:08:17.920Z,30.69
2018-06-12T11:10:44.228Z,30.72
2018-06-12T11:13:10.510Z,30.77
2018-06-12T11:15:36.800Z,30.81
2018-06-12T11:18:03.100Z,30.83
2018-06-12T11:20:29.381Z,30.86
2018-06-12T11:22:55.671Z,30.86
2018-06-12T11:25:21.969Z,30.88
2018-06-12T11:27:48.261Z,30.88
2018-06-12T11:30:14.653Z,30.87
2018-06-12T11:32:40.898Z,30.90
2018-06-12T11:35:07.196Z,30.85
2018-06-12T11:37:33.484Z,30.51
2018-06-12T11:39:59.775Z,30.33
2018-06-12T11:42:26.111Z,30.28
2018-06-12T11:44:52.400Z,30.23
2018-06-12T11:47:18.696Z,30.19
2018-06-12T11:49:44.992Z,30.07
2018-06-12T11:52:11.284Z,29.96
2018-06-12T11:54:37.582Z,29.92
2018-06-12T11:57:03.911Z,29.83
2018-06-12T11:59:30.198Z,29.78
2018-06-12T12:01:56.487Z,29.78
2018-06-12T12:04:22.781Z,29.76
2018-06-12T12:06:49.071Z,29.94
2018-06-12T12:09:15.368Z,30.17
2018-06-12T12:11:41.651Z,30.31
2018-06-12T12:14:07.947Z,30.41
2018-06-12T12:16:34.246Z,30.46
2018-06-12T12:19:00.581Z,30.48
2018-06-12T12:21:26.867Z,30.49
2018-06-12T12:23:53.170Z,30.53
2018-06-12T12:26:19.471Z,30.51
2018-06-12T12:28:45.832Z,30.52
2018-06-12T12:31:12.064Z,30.51
2018-06-12T12:33:38.358Z,30.56
2018-06-12T12:36:04.653Z,30.56
2018-06-12T12:38:30.950Z,30.58
2018-06-12T12:40:57.249Z,30.55
2018-06-12T12:43:23.534Z,30.54
2018-06-12T12:45:49.956Z,30.58
2018-06-12T12:48:16.333Z,30.60
2018-06-12T12:50:42.577Z,30.66
2018-06-12T12:53:08.947Z,30.70
2018-06-12T12:55:35.162Z,30.72
2018-06-12T12:58:01.473Z,30.71
2018-06-12T13:00:27.765Z,30.70
2018-06-12T13:02:54.055Z,30.70
2018-06-12T13:05:20.346Z,30.73
2018-06-12T13:07:46.700Z,30.70
2018-06-12T13:10:13.028Z,30.71
2018-06-12T13:12:39.314Z,30.72
2018-06-12T13:15:05.645Z,30.71
2018-06-12T13:17:31.937Z,30.72
2018-06-12T13:19:58.231Z,30.70
2018-06-12T13:22:24.529Z,30.70
2018-06-12T13:24:50.842Z,30.67
2018-06-12T13:27:17.178Z,30.62
2018-06-12T13:29:43.469Z,30.61
2018-06-12T13:32:09.765Z,30.60
2018-06-12T13:34:36.062Z,30.60
2018-06-12T13:37:02.355Z,30.62
2018-06-12T13:39:28.647Z,30.64
2018-06-12T13:41:54.947Z,30.69
2018-06-12T13:44:21.257Z,30.73
2018-06-12T13:46:47.568Z,30.71
2018-06-12T13:49:13.866Z,30.71
2018-06-12T13:51:40.159Z,30.73
2018-06-12T13:54:06.449Z,30.71
2018-06-12T13:56:32.791Z,30.71
2018-06-12T13:58:59.031Z,30.69
2018-06-12T14:01:25.328Z,30.64
2018-06-12T14:03:51.629Z,30.61
2018-06-12T14:06:17.916Z,30.62
2018-06-12T14:08:44.198Z,30.59
2018-06-12T14:11:10.503Z,30.53
2018-06-12T14:13:37.051Z,30.47
2018-06-12T14:16:03.105Z,30.44
2018-06-12T14:18:29.392Z,30.44
2018-06-12T14:20:55.694Z,30.46
2018-06-12T14:23:21.989Z,30.45
2018-06-12T14:25:48.321Z,30.43
2018-06-12T14:28:14.635Z,30.39
2018-06-12T14:30:40.937Z,30.36
2018-06-12T14:33:07.273Z,30.35
2018-06-12T14:35:33.582Z,30.32
2018-06-12T14:37:59.879Z,30.28
2018-06-12T14:40:26.194Z,30.26
2018-06-12T14:42:52.489Z,30.23
2018-06-12T14:45:18.777Z,30.21
2018-06-12T14:47:45.071Z,30.19
2018-06-12T14:50:11.414Z,30.16
2018-06-12T14:52:37.728Z,30.14
2018-06-12T14:55:04.045Z,30.12
2018-06-12T14:57:30.341Z,30.09
2018-06-12T14:59:56.634Z,30.07
2018-06-12T15:02:22.929Z,30.07
2018-06-12T15:04:49.225Z,30.05
2018-06-12T15:07:15.520Z,30.03
2018-06-12T15:09:41.822Z,30.02
2018-06-12T15:12:08.112Z,29.99
2018-06-12T15:14:34.403Z,29.80
2018-06-12T15:17:00.732Z,29.66
2018-06-12T15:19:27.069Z,29.55
2018-06-12T15:21:53.363Z,29.60
2018-06-12T15:24:19.658Z,29.67
2018-06-12T15:26:45.973Z,29.66
2018-06-12T15:29:12.270Z,29.64
2018-06-12T15:31:38.608Z,29.62
2018-06-12T15:34:04.897Z,29.60
2018-06-12T15:36:31.188Z,29.52
2018-06-12T15:38:57.589Z,29.50
2018-06-12T15:41:23.789Z,29.51
2018-06-12T15:43:50.396Z,29.50
2018-06-12T15:46:16.703Z,29.48
2018-06-12T15:48:42.990Z,29.46
2018-06-12T15:51:09.290Z,29.45
2018-06-12T15:53:35.617Z,29.45
2018-06-12T15:56:01.875Z,29.40
2018-06-12T15:58:28.173Z,29.39
2018-06-12T16:00:54.463Z,29.41
2018-06-12T16:03:20.751Z,29.43
2018-06-12T16:05:47.038Z,29.42
2018-06-12T16:08:13.337Z,29.40
2018-06-12T16:10:39.633Z,29.40
2018-06-12T16:13:05.939Z,29.41
2018-06-12T16:15:32.239Z,29.42
2018-06-12T16:17:58.527Z,29.40
2018-06-12T16:20:24.821Z,29.39
2018-06-12T16:22:51.122Z,29.38
2018-06-12T16:25:17.428Z,29.40
2018-06-12T16:27:43.716Z,29.44
2018-06-12T16:30:10.023Z,29.46
2018-06-12T16:32:36.314Z,29.47
2018-06-12T16:35:02.615Z,29.46
2018-06-12T16:37:29.065Z,29.46
2018-06-12T16:39:55.352Z,29.43
2018-06-12T16:42:21.651Z,29.41
2018-06-12T16:44:47.944Z,29.40
2018-06-12T16:47:14.231Z,29.41
2018-06-12T16:49:40.528Z,29.41
2018-06-12T16:52:06.826Z,29.36
2018-06-12T16:54:33.160Z,29.30
2018-06-12T16:56:59.450Z,29.25
2018-06-12T16:59:25.745Z,29.23
2018-06-12T17:01:52.042Z,29.20
2018-06-12T17:04:18.330Z,29.20
2018-06-12T17:06:44.632Z,29.18
2018-06-12T17:09:10.918Z,29.18
2018-06-12T17:11:37.220Z,29.13
2018-06-12T17:14:03.516Z,29.09
2018-06-12T17:16:29.867Z,29.05
2018-06-12T17:18:56.105Z,29.06
2018-06-12T17:21:22.400Z,29.07
2018-06-12T17:23:48.699Z,29.03
2018-06-12T17:26:14.991Z,29.02
2018-06-12T17:28:41.287Z,28.99
2018-06-12T17:31:07.571Z,28.93
2018-06-12T17:33:33.900Z,28.89
2018-06-12T17:36:00.232Z,28.87
2018-06-12T17:38:26.527Z,28.87
2018-06-12T17:40:52.845Z,28.84
2018-06-12T17:43:19.139Z,28.84
2018-06-12T17:45:45.423Z,28.82
2018-06-12T17:48:11.723Z,28.80
2018-06-12T17:50:38.014Z,28.79
2018-06-12T17:53:04.309Z,28.77
2018-06-12T17:55:30.595Z,28.71
2018-06-12T17:57:56.891Z,28.69
2018-06-12T18:00:23.190Z,28.64
2018-06-12T18:02:49.484Z,28.61
2018-06-12T18:05:15.783Z,28.59
2018-06-12T18:07:42.072Z,28.59
2018-06-12T18:10:08.374Z,28.57
2018-06-12T18:12:34.652Z,28.55
2018-06-12T18:15:00.946Z,28.54
2018-06-12T18:17:27.231Z,28.55
2018-06-12T18:19:53.533Z,28.54
2018-06-12T18:22:19.821Z,28.52
2018-06-12T18:24:46.197Z,28.47
2018-06-12T18:27:12.414Z,28.46
2018-06-12T18:29:38.710Z,28.39
2018-06-12T18:32:05.000Z,28.35
2018-06-12T18:34:31.287Z,28.29
2018-06-12T18:36:57.598Z,28.23
2018-06-12T18:39:23.887Z,28.19
2018-06-12T18:41:50.180Z,28.14
2018-06-12T18:44:16.508Z,28.11
2018-06-12T18:46:42.810Z,28.10
2018-06-12T18:49:09.110Z,28.04
2018-06-12T18:51:35.407Z,28.01
2018-06-12T18:54:01.697Z,27.99
2018-06-12T18:56:27.988Z,27.97
2018-06-12T18:58:54.318Z,27.98
2018-06-12T19:01:21.016Z,27.88
2018-06-12T19:03:47.310Z,27.88
2018-06-12T19:06:13.598Z,27.88
2018-06-12T19:08:39.887Z,27.86
2018-06-12T19:11:06.214Z,27.86
2018-06-12T19:13:32.557Z,27.88
2018-06-12T19:15:58.805Z,27.92
2018-06-12T19:18:25.130Z,27.94
2018-06-12T19:20:51.453Z,27.90
2018-06-12T19:23:17.743Z,27.77
2018-06-12T19:25:44.043Z,27.70
2018-06-12T19:28:10.365Z,27.64
2018-06-12T19:30:36.623Z,27.58
2018-06-12T19:33:02.921Z,27.47
2018-06-12T19:35:29.212Z,27.38
2018-06-12T19:37:55.511Z,27.35
2018-06-12T19:40:21.798Z,27.31
2018-06-12T19:42:48.127Z,27.30
2018-06-12T19:45:14.428Z,27.29
2018-06-12T19:47:40.733Z,27.27
2018-06-12T19:50:07.022Z,27.29
2018-06-12T19:52:33.311Z,27.29
2018-06-12T19:54:59.606Z,27.25
2018-06-12T19:57:25.894Z,27.19
2018-06-12T19:59:52.190Z,27.16
2018-06-12T20:02:18.485Z,27.06
2018-06-12T20:04:44.830Z,27.04
2018-06-12T20:07:11.125Z,27.03
2018-06-12T20:09:37.417Z,27.00
2018-06-12T20:12:03.761Z,26.96
2018-06-12T20:14:30.047Z,26.91
2018-06-12T20:16:56.331Z,26.90
2018-06-12T20:19:22.682Z,26.91
2018-06-12T20:21:48.977Z,26.95
2018-06-12T20:24:15.264Z,26.92
2018-06-12T20:26:41.560Z,26.88
2018-06-12T20:29:07.847Z,26.84
2018-06-12T20:31:34.134Z,26.81
2018-06-12T20:34:00.429Z,26.74
2018-06-12T20:36:26.767Z,26.66
2018-06-12T20:38:53.030Z,26.62
2018-06-12T20:41:19.320Z,26.65
2018-06-12T20:43:45.609Z,26.55
2018-06-12T20:46:11.904Z,26.48
2018-06-12T20:48:38.195Z,26.44
2018-06-12T20:51:04.495Z,26.39
2018-06-12T20:53:30.782Z,26.34
2018-06-12T20:55:57.077Z,26.33
2018-06-12T20:58:23.362Z,26.29
2018-06-12T21:00:49.652Z,26.27
2018-06-12T21:03:15.944Z,26.31
2018-06-12T21:05:42.242Z,26.35
2018-06-12T21:08:08.531Z,26.41
2018-06-12T21:10:34.828Z,26.43
2018-06-12T21:13:01.160Z,26.46
2018-06-12T21:15:27.454Z,26.49
2018-06-12T21:17:53.745Z,26.47
2018-06-12T21:20:20.051Z,26.44
2018-06-12T21:22:46.344Z,26.30
2018-06-12T21:25:12.671Z,26.27
2018-06-12T21:27:38.970Z,26.21
2018-06-12T21:30:05.303Z,26.21
2018-06-12T21:32:31.601Z,26.22
2018-06-12T21:34:57.896Z,26.21
2018-06-12T21:37:24.196Z,26.15
2018-06-12T21:39:50.505Z,26.05
2018-06-12T21:42:16.787Z,26.00
2018-06-12T21:44:43.086Z,25.94
2018-06-12T21:47:09.862Z,25.98
2018-06-12T21:49:36.163Z,25.97
2018-06-12T21:52:02.458Z,25.93
2018-06-12T21:54:28.765Z,25.86
2018-06-12T21:56:55.059Z,25.79
2018-06-12T21:59:21.353Z,25.72
2018-06-12T22:01:47.645Z,25.74
2018-06-12T22:04:13.945Z,25.62
2018-06-12T22:06:40.277Z,25.56
2018-06-12T22:09:06.573Z,25.49
2018-06-12T22:11:32.876Z,25.45
2018-06-12T22:13:59.158Z,25.46
2018-06-12T22:16:25.449Z,25.46
2018-06-12T22:18:51.782Z,25.50
2018-06-12T22:21:18.078Z,25.48
2018-06-12T22:23:44.464Z,25.46
2018-06-12T22:26:10.757Z,25.43
2018-06-12T22:28:37.095Z,25.41
2018-06-12T22:31:03.365Z,25.47
2018-06-12T22:33:29.651Z,25.43
2018-06-12T22:35:55.953Z,25.37
2018-06-12T22:38:22.246Z,25.30
2018-06-12T22:40:48.540Z,25.31
2018-06-12T22:43:14.831Z,25.34
2018-06-12T22:45:41.182Z,25.20
2018-06-12T22:48:07.456Z,25.01
2018-06-12T22:50:33.754Z,24.95
2018-06-12T22:53:00.056Z,24.89
2018-06-12T22:55:26.350Z,24.78
2018-06-12T22:57:52.653Z,24.70
2018-06-12T23:00:18.941Z,24.74
2018-06-12T23:02:45.246Z,24.65
2018-06-12T23:05:11.589Z,24.56
2018-06-12T23:07:37.879Z,24.50
2018-06-12T23:10:04.180Z,24.59
2018-06-12T23:12:30.472Z,24.62
2018-06-12T23:14:56.803Z,24.55
2018-06-12T23:17:23.117Z,24.55
2018-06-12T23:19:49.442Z,24.56
2018-06-12T23:22:15.733Z,24.67
2018-06-12T23:24:42.023Z,24.63
2018-06-12T23:27:08.361Z,24.60
2018-06-12T23:29:34.643Z,24.57
2018-06-12T23:32:00.932Z,24.54
2018-06-12T23:34:27.215Z,24.58
2018-06-12T23:36:53.540Z,24.58
2018-06-12T23:39:19.911Z,24.57
2018-06-12T23:41:46.126Z,24.60
2018-06-12T23:44:12.434Z,24.62
2018-06-12T23:46:38.760Z,24.55
2018-06-12T23:49:05.059Z,24.56
2018-06-12T23:51:31.354Z,24.52
2018-06-12T23:53:57.657Z,24.54
2018-06-12T23:56:23.971Z,24.58
2018-06-12T23:58:50.314Z,24.52
